Time,TemperatureF,DewpointF,PressureIn,WindDirection,WindDirectionDegrees,WindSpeedMPH,WindSpeedGustMPH,Humidity,HourlyPrecipIn,Conditions,Clouds,dailyrainin,SolarRadiationWatts/m^2,SoftwareType,DateUTC
2013-01-23 00:03:00,29.0,2.0,-100.00,NNW,336,4.0,12.0,31,0.00,,,0.00,0.000000,,2013-01-23 05:03:00,
2013-01-23 00:33:00,29.0,4.0,-100.00,NNE,16,2.0,10.0,33,0.00,,,0.00,0.000000,,2013-01-23 05:33:00,
2013-01-23 00:43:00,29.0,4.0,-100.00,NNE,16,2.0,10.0,33,0.00,,,0.00,0.000000,,2013-01-23 05:43:00,
2013-01-23 00:53:00,29.0,4.0,-100.00,NNE,16,2.0,10.0,33,0.00,,,0.00,0.000000,,2013-01-23 05:53:00,
2013-01-23 01:03:00,29.0,4.0,-100.00,NNE,16,2.0,10.0,33,0.00,,,0.00,0.000000,,2013-01-23 06:03:00,
2013-01-23 01:33:00,29.0,4.0,-100.00,WNW,282,5.0,10.0,34,0.00,,,0.00,0.000000,,2013-01-23 06:33:00,
2013-01-23 01:43:00,29.0,4.0,-100.00,WNW,282,5.0,10.0,34,0.00,,,0.00,0.000000,,2013-01-23 06:43:00,
2013-01-23 01:53:00,29.0,4.0,-100.00,WNW,282,5.0,10.0,34,0.00,,,0.00,0.000000,,2013-01-23 06:53:00,
2013-01-23 02:02:00,29.0,4.0,-100.00,WNW,282,5.0,10.0,34,0.00,,,0.00,0.000000,,2013-01-23 07:02:00,
2013-01-23 02:33:00,29.0,5.0,-100.00,NW,325,6.0,14.0,35,0.00,,,0.00,0.000000,,2013-01-23 07:33:00,
2013-01-23 02:43:00,29.0,5.0,-100.00,NW,325,6.0,14.0,35,0.00,,,0.00,0.000000,,2013-01-23 07:43:00,
2013-01-23 02:53:00,29.0,5.0,-100.00,NW,325,6.0,14.0,35,0.00,,,0.00,0.000000,,2013-01-23 07:53:00,
2013-01-23 03:02:00,29.0,5.0,-100.00,NW,325,6.0,14.0,35,0.00,,,0.00,0.000000,,2013-01-23 08:02:00,
2013-01-23 03:33:00,29.0,6.0,-100.00,North,5,7.0,16.0,37,0.00,,,0.00,0.000000,,2013-01-23 08:33:00,
2013-01-23 03:43:00,29.0,6.0,-100.00,North,5,7.0,16.0,37,0.00,,,0.00,0.000000,,2013-01-23 08:43:00,
2013-01-23 03:53:00,29.0,6.0,-100.00,North,5,7.0,16.0,37,0.00,,,0.00,0.000000,,2013-01-23 08:53:00,
2013-01-23 04:03:00,29.0,6.0,-100.00,North,5,7.0,16.0,37,0.00,,,0.00,0.000000,,2013-01-23 09:03:00,
2013-01-23 04:33:00,29.0,8.0,-100.00,North,1,6.0,19.0,40,0.00,,,0.00,0.000000,,2013-01-23 09:33:00,
2013-01-23 04:43:00,29.0,8.0,-100.00,North,1,6.0,19.0,40,0.00,,,0.00,0.000000,,2013-01-23 09:43:00,
2013-01-23 04:53:00,29.0,8.0,-100.00,North,1,6.0,19.0,40,0.00,,,0.00,0.000000,,2013-01-23 09:53:00,
2013-01-23 05:03:00,29.0,8.0,-100.00,North,1,6.0,19.0,40,0.00,,,0.00,0.000000,,2013-01-23 10:03:00,
2013-01-23 05:33:00,29.0,8.0,-100.00,NE,41,4.0,15.0,40,0.00,,,0.00,0.000000,,2013-01-23 10:33:00,
2013-01-23 05:43:00,29.0,8.0,-100.00,NE,41,4.0,15.0,40,0.00,,,0.00,0.000000,,2013-01-23 10:43:00,
2013-01-23 05:53:00,29.0,8.0,-100.00,NE,41,4.0,15.0,40,0.00,,,0.00,0.000000,,2013-01-23 10:53:00,
2013-01-23 06:03:00,29.0,8.0,-100.00,NE,41,4.0,15.0,40,0.00,,,0.00,0.000000,,2013-01-23 11:03:00,
2013-01-23 06:34:00,29.0,8.0,-100.00,NNE,25,6.0,15.0,41,0.00,,,0.00,0.000000,,2013-01-23 11:34:00,
2013-01-23 06:43:00,29.0,8.0,-100.00,NNE,25,6.0,15.0,41,0.00,,,0.00,0.000000,,2013-01-23 11:43:00,
2013-01-23 06:53:00,29.0,8.0,-100.00,NNE,25,6.0,15.0,41,0.00,,,0.00,0.000000,,2013-01-23 11:53:00,
2013-01-23 07:03:00,29.0,8.0,-100.00,NNE,25,6.0,15.0,41,0.00,,,0.00,0.000000,,2013-01-23 12:03:00,
2013-01-23 07:33:00,30.0,9.0,-100.00,North,6,6.0,15.0,41,0.00,,,0.00,0.000000,,2013-01-23 12:33:00,
2013-01-23 07:43:00,30.0,9.0,-100.00,North,6,6.0,15.0,41,0.00,,,0.00,0.000000,,2013-01-23 12:43:00,
2013-01-23 07:53:00,30.0,9.0,-100.00,North,6,6.0,15.0,41,0.00,,,0.00,0.000000,,2013-01-23 12:53:00,
2013-01-23 08:04:00,30.0,9.0,-100.00,North,6,6.0,15.0,41,0.00,,,0.00,0.000000,,2013-01-23 13:04:00,
2013-01-23 08:34:00,30.0,10.0,-100.00,NNE,32,6.0,13.0,42,0.00,,,0.00,3.000000,,2013-01-23 13:34:00,
2013-01-23 08:43:00,30.0,10.0,-100.00,NNE,32,6.0,13.0,42,0.00,,,0.00,3.000000,,2013-01-23 13:43:00,
2013-01-23 08:53:00,30.0,10.0,-100.00,NNE,32,6.0,13.0,42,0.00,,,0.00,3.000000,,2013-01-23 13:53:00,
2013-01-23 09:03:00,30.0,10.0,-100.00,NNE,32,6.0,13.0,42,0.00,,,0.00,3.000000,,2013-01-23 14:03:00,
2013-01-23 09:33:00,33.0,13.0,-100.00,NE,54,5.0,12.0,43,0.00,,,0.00,52.000000,,2013-01-23 14:33:00,
2013-01-23 09:43:00,33.0,13.0,-100.00,NE,54,5.0,12.0,43,0.00,,,0.00,52.000000,,2013-01-23 14:43:00,
2013-01-23 09:53:00,33.0,13.0,-100.00,NE,54,5.0,12.0,43,0.00,,,0.00,52.000000,,2013-01-23 14:53:00,
2013-01-23 10:03:00,33.0,13.0,-100.00,NE,54,5.0,12.0,43,0.00,,,0.00,52.000000,,2013-01-23 15:03:00,
2013-01-23 10:33:00,35.0,14.0,-100.00,North,4,5.0,11.0,42,0.00,,,0.00,153.000000,,2013-01-23 15:33:00,
2013-01-23 10:43:00,35.0,14.0,-100.00,North,4,5.0,11.0,42,0.00,,,0.00,153.000000,,2013-01-23 15:43:00,
2013-01-23 10:53:00,35.0,14.0,-100.00,North,4,5.0,11.0,42,0.00,,,0.00,153.000000,,2013-01-23 15:53:00,
2013-01-23 11:03:00,35.0,14.0,-100.00,North,4,5.0,11.0,42,0.00,,,0.00,153.000000,,2013-01-23 16:03:00,
2013-01-23 11:33:00,39.0,18.0,-100.00,NNW,344,4.0,12.0,42,0.00,,,0.00,243.000000,,2013-01-23 16:33:00,
2013-01-23 11:43:00,39.0,18.0,-100.00,NNW,344,4.0,12.0,42,0.00,,,0.00,243.000000,,2013-01-23 16:43:00,
2013-01-23 11:53:00,39.0,18.0,-100.00,NNW,344,4.0,12.0,42,0.00,,,0.00,243.000000,,2013-01-23 16:53:00,
2013-01-23 12:03:00,39.0,18.0,-100.00,NNW,344,4.0,12.0,42,0.00,,,0.00,243.000000,,2013-01-23 17:03:00,
2013-01-23 12:34:00,42.0,20.0,-100.00,NNE,21,5.0,11.0,41,0.00,,,0.00,396.000000,,2013-01-23 17:34:00,
2013-01-23 12:43:00,42.0,20.0,-100.00,NNE,21,5.0,11.0,41,0.00,,,0.00,396.000000,,2013-01-23 17:43:00,
2013-01-23 12:53:00,42.0,20.0,-100.00,NNE,21,5.0,11.0,41,0.00,,,0.00,396.000000,,2013-01-23 17:53:00,
2013-01-23 13:03:00,42.0,20.0,-100.00,NNE,21,5.0,11.0,41,0.00,,,0.00,396.000000,,2013-01-23 18:03:00,
2013-01-23 13:33:00,46.0,23.0,-100.00,WSW,256,8.0,16.0,40,0.00,,,0.00,738.000000,,2013-01-23 18:33:00,
2013-01-23 13:44:00,46.0,23.0,-100.00,WSW,256,8.0,16.0,40,0.00,,,0.00,738.000000,,2013-01-23 18:44:00,
2013-01-23 13:53:00,46.0,23.0,-100.00,WSW,256,8.0,16.0,40,0.00,,,0.00,738.000000,,2013-01-23 18:53:00,
2013-01-23 14:03:00,46.0,23.0,-100.00,WSW,256,8.0,16.0,40,0.00,,,0.00,738.000000,,2013-01-23 19:03:00,
2013-01-23 14:33:00,47.0,23.0,-100.00,SW,236,7.0,17.0,38,0.00,,,0.00,763.000000,,2013-01-23 19:33:00,
2013-01-23 14:43:00,47.0,23.0,-100.00,SW,236,7.0,17.0,38,0.00,,,0.00,763.000000,,2013-01-23 19:43:00,
2013-01-23 14:53:00,47.0,23.0,-100.00,SW,236,7.0,17.0,38,0.00,,,0.00,763.000000,,2013-01-23 19:53:00,
2013-01-23 15:03:00,47.0,23.0,-100.00,SW,236,7.0,17.0,38,0.00,,,0.00,763.000000,,2013-01-23 20:03:00,
2013-01-23 16:34:00,46.0,21.0,-100.00,SW,227,7.0,12.0,37,-99.99,,,0.00,516.000000,,2013-01-23 21:34:00,
2013-01-23 16:43:00,46.0,21.0,-100.00,SW,227,7.0,12.0,37,-99.99,,,0.00,516.000000,,2013-01-23 21:43:00,
2013-01-23 16:53:00,46.0,21.0,-100.00,SW,227,7.0,12.0,37,-99.99,,,0.00,516.000000,,2013-01-23 21:53:00,
2013-01-23 17:03:00,46.0,21.0,-100.00,SW,227,7.0,12.0,37,-99.99,,,0.00,516.000000,,2013-01-23 22:03:00,
2013-01-23 17:33:00,47.0,22.0,-100.00,SW,225,4.0,11.0,37,0.00,,,0.00,308.000000,,2013-01-23 22:33:00,
2013-01-23 17:43:00,47.0,22.0,-100.00,SW,225,4.0,11.0,37,0.00,,,0.00,308.000000,,2013-01-23 22:43:00,
2013-01-23 17:53:00,47.0,22.0,-100.00,SW,225,4.0,11.0,37,0.00,,,0.00,308.000000,,2013-01-23 22:53:00,
2013-01-23 18:03:00,47.0,22.0,-100.00,SW,225,4.0,11.0,37,0.00,,,0.00,308.000000,,2013-01-23 23:03:00,
2013-01-23 18:33:00,42.0,22.0,-100.00,SW,229,2.0,11.0,44,0.00,,,0.00,50.000000,,2013-01-23 23:33:00,
2013-01-23 18:43:00,42.0,22.0,-100.00,SW,229,2.0,11.0,44,0.00,,,0.00,50.000000,,2013-01-23 23:43:00,
2013-01-23 18:53:00,42.0,22.0,-100.00,SW,229,2.0,11.0,44,0.00,,,0.00,50.000000,,2013-01-23 23:53:00,
2013-01-23 19:03:00,42.0,22.0,-100.00,SW,229,2.0,11.0,44,0.00,,,0.00,50.000000,,2013-01-24 00:03:00,
2013-01-23 19:33:00,36.0,22.0,-100.00,NNE,13,3.0,4.0,56,0.00,,,0.00,0.000000,,2013-01-24 00:33:00,
2013-01-23 19:43:00,36.0,22.0,-100.00,NNE,13,3.0,4.0,56,0.00,,,0.00,0.000000,,2013-01-24 00:43:00,
2013-01-23 19:53:00,36.0,22.0,-100.00,NNE,13,3.0,4.0,56,0.00,,,0.00,0.000000,,2013-01-24 00:53:00,
2013-01-23 20:03:00,36.0,22.0,-100.00,NNE,13,3.0,4.0,56,0.00,,,0.00,0.000000,,2013-01-24 01:03:00,
2013-01-23 20:33:00,35.0,24.0,-100.00,NE,46,2.0,4.0,65,0.00,,,0.00,0.000000,,2013-01-24 01:33:00,
2013-01-23 20:43:00,35.0,24.0,-100.00,NE,46,2.0,4.0,65,0.00,,,0.00,0.000000,,2013-01-24 01:43:00,
2013-01-23 20:53:00,35.0,24.0,-100.00,NE,46,2.0,4.0,65,0.00,,,0.00,0.000000,,2013-01-24 01:53:00,
2013-01-23 21:03:00,35.0,24.0,-100.00,NE,46,2.0,4.0,65,0.00,,,0.00,0.000000,,2013-01-24 02:03:00,
2013-01-23 21:33:00,38.0,25.0,-100.00,NE,49,2.0,4.0,59,0.00,,,0.00,0.000000,,2013-01-24 02:33:00,
2013-01-23 21:43:00,38.0,25.0,-100.00,NE,49,2.0,4.0,59,0.00,,,0.00,0.000000,,2013-01-24 02:43:00,
2013-01-23 21:52:00,38.0,25.0,-100.00,NE,49,2.0,4.0,59,0.00,,,0.00,0.000000,,2013-01-24 02:52:00,
2013-01-23 22:03:00,38.0,25.0,-100.00,NE,49,2.0,4.0,59,0.00,,,0.00,0.000000,,2013-01-24 03:03:00,
2013-01-23 22:33:00,38.0,27.0,-100.00,East,97,3.0,9.0,63,0.00,,,0.00,0.000000,,2013-01-24 03:33:00,
2013-01-23 22:43:00,38.0,27.0,-100.00,East,97,3.0,9.0,63,0.00,,,0.00,0.000000,,2013-01-24 03:43:00,
2013-01-23 22:53:00,38.0,27.0,-100.00,East,97,3.0,9.0,63,0.00,,,0.00,0.000000,,2013-01-24 03:53:00,
2013-01-23 23:03:00,38.0,27.0,-100.00,East,97,3.0,9.0,63,0.00,,,0.00,0.000000,,2013-01-24 04:03:00,
2013-01-23 23:33:00,44.0,31.0,-100.00,SW,221,6.0,17.0,61,0.00,,,0.00,0.000000,,2013-01-24 04:33:00,
2013-01-23 23:43:00,44.0,31.0,-100.00,SW,221,6.0,17.0,61,0.00,,,0.00,0.000000,,2013-01-24 04:43:00,
2013-01-23 23:53:00,44.0,31.0,-100.00,SW,221,6.0,17.0,61,0.00,,,0.00,0.000000,,2013-01-24 04:53:00,